sensor_id;sensor_type;location;lat;lon;timestamp;temperature;humidity
13591;DHT22;6866;50.778;7.206;2023-06-10T00:01:53;20.80;61.10
13591;DHT22;6866;50.778;7.206;2023-06-10T00:04:23;20.80;61.50
13591;DHT22;6866;50.778;7.206;2023-06-10T00:06:48;20.70;61.40
13591;DHT22;6866;50.778;7.206;2023-06-10T00:09:15;20.70;61.80
13591;DHT22;6866;50.778;7.206;2023-06-10T00:11:41;20.70;61.90
13591;DHT22;6866;50.778;7.206;2023-06-10T00:14:07;20.60;62.00
13591;DHT22;6866;50.778;7.206;2023-06-10T00:16:34;20.50;62.30
13591;DHT22;6866;50.778;7.206;2023-06-10T00:19:03;20.50;62.00
13591;DHT22;6866;50.778;7.206;2023-06-10T00:21:31;20.50;62.80
13591;DHT22;6866;50.778;7.206;2023-06-10T00:24:06;20.50;62.70
13591;DHT22;6866;50.778;7.206;2023-06-10T00:26:32;20.40;62.80
13591;DHT22;6866;50.778;7.206;2023-06-10T00:28:58;20.40;62.90
13591;DHT22;6866;50.778;7.206;2023-06-10T00:31:23;20.40;63.50
13591;DHT22;6866;50.778;7.206;2023-06-10T00:33:49;20.40;63.40
13591;DHT22;6866;50.778;7.206;2023-06-10T00:36:14;20.30;63.80
13591;DHT22;6866;50.778;7.206;2023-06-10T00:38:40;20.20;64.20
13591;DHT22;6866;50.778;7.206;2023-06-10T00:41:06;20.20;64.30
13591;DHT22;6866;50.778;7.206;2023-06-10T00:43:32;20.20;64.70
13591;DHT22;6866;50.778;7.206;2023-06-10T00:45:58;20.00;65.50
13591;DHT22;6866;50.778;7.206;2023-06-10T00:48:23;19.90;65.80
13591;DHT22;6866;50.778;7.206;2023-06-10T00:50:50;19.80;66.50
13591;DHT22;6866;50.778;7.206;2023-06-10T00:53:15;19.90;66.50
13591;DHT22;6866;50.778;7.206;2023-06-10T00:55:41;19.80;66.20
13591;DHT22;6866;50.778;7.206;2023-06-10T00:58:07;19.90;66.50
13591;DHT22;6866;50.778;7.206;2023-06-10T01:05:37;19.70;67.10
13591;DHT22;6866;50.778;7.206;2023-06-10T01:08:16;19.70;67.30
13591;DHT22;6866;50.778;7.206;2023-06-10T01:10:53;19.70;67.50
13591;DHT22;6866;50.778;7.206;2023-06-10T01:13:22;19.60;68.10
13591;DHT22;6866;50.778;7.206;2023-06-10T01:15:50;19.40;68.60
13591;DHT22;6866;50.778;7.206;2023-06-10T01:18:15;19.40;69.40
13591;DHT22;6866;50.778;7.206;2023-06-10T01:20:42;19.40;69.40
13591;DHT22;6866;50.778;7.206;2023-06-10T01:23:10;19.50;69.50
13591;DHT22;6866;50.778;7.206;2023-06-10T01:25:52;19.50;69.30
13591;DHT22;6866;50.778;7.206;2023-06-10T01:28:31;19.60;70.30
13591;DHT22;6866;50.778;7.206;2023-06-10T01:31:07;19.40;69.80
13591;DHT22;6866;50.778;7.206;2023-06-10T01:33:37;19.40;70.10
13591;DHT22;6866;50.778;7.206;2023-06-10T01:36:04;19.40;70.30
13591;DHT22;6866;50.778;7.206;2023-06-10T01:38:33;19.40;70.40
13591;DHT22;6866;50.778;7.206;2023-06-10T01:40:58;19.30;70.60
13591;DHT22;6866;50.778;7.206;2023-06-10T01:43:25;19.30;70.60
13591;DHT22;6866;50.778;7.206;2023-06-10T01:45:51;19.30;71.10
13591;DHT22;6866;50.778;7.206;2023-06-10T01:48:16;19.20;71.40
13591;DHT22;6866;50.778;7.206;2023-06-10T01:50:42;19.20;72.40
13591;DHT22;6866;50.778;7.206;2023-06-10T01:53:09;19.00;72.70
13591;DHT22;6866;50.778;7.206;2023-06-10T01:55:35;19.10;72.80
13591;DHT22;6866;50.778;7.206;2023-06-10T01:58:00;19.10;72.30
13591;DHT22;6866;50.778;7.206;2023-06-10T02:00:26;19.10;72.80
13591;DHT22;6866;50.778;7.206;2023-06-10T02:02:51;19.10;72.90
13591;DHT22;6866;50.778;7.206;2023-06-10T02:05:17;19.10;73.20
13591;DHT22;6866;50.778;7.206;2023-06-10T02:07:42;19.00;73.30
13591;DHT22;6866;50.778;7.206;2023-06-10T02:10:08;19.00;73.80
13591;DHT22;6866;50.778;7.206;2023-06-10T02:12:34;19.00;73.70
13591;DHT22;6866;50.778;7.206;2023-06-10T02:14:59;19.00;74.10
13591;DHT22;6866;50.778;7.206;2023-06-10T02:17:25;18.80;75.30
13591;DHT22;6866;50.778;7.206;2023-06-10T02:19:51;18.70;76.10
13591;DHT22;6866;50.778;7.206;2023-06-10T02:22:21;18.70;76.40
13591;DHT22;6866;50.778;7.206;2023-06-10T02:24:47;18.70;76.70
13591;DHT22;6866;50.778;7.206;2023-06-10T02:27:12;18.70;76.40
13591;DHT22;6866;50.778;7.206;2023-06-10T02:29:38;18.70;76.70
13591;DHT22;6866;50.778;7.206;2023-06-10T02:32:04;18.70;76.50
13591;DHT22;6866;50.778;7.206;2023-06-10T02:34:30;18.60;77.40
13591;DHT22;6866;50.778;7.206;2023-06-10T02:36:55;18.60;77.40
13591;DHT22;6866;50.778;7.206;2023-06-10T02:39:21;18.70;77.70
13591;DHT22;6866;50.778;7.206;2023-06-10T02:41:47;18.70;77.50
13591;DHT22;6866;50.778;7.206;2023-06-10T02:44:12;18.70;77.30
13591;DHT22;6866;50.778;7.206;2023-06-10T02:46:38;18.70;78.10
13591;DHT22;6866;50.778;7.206;2023-06-10T02:49:03;18.70;78.80
13591;DHT22;6866;50.778;7.206;2023-06-10T02:51:29;18.60;79.10
13591;DHT22;6866;50.778;7.206;2023-06-10T02:53:55;18.50;80.40
13591;DHT22;6866;50.778;7.206;2023-06-10T02:56:20;18.30;81.30
13591;DHT22;6866;50.778;7.206;2023-06-10T02:58:47;18.30;82.50
13591;DHT22;6866;50.778;7.206;2023-06-10T03:01:13;18.10;83.70
13591;DHT22;6866;50.778;7.206;2023-06-10T03:03:39;18.10;84.40
13591;DHT22;6866;50.778;7.206;2023-06-10T03:06:09;18.10;85.20
13591;DHT22;6866;50.778;7.206;2023-06-10T03:08:35;18.10;86.30
13591;DHT22;6866;50.778;7.206;2023-06-10T03:11:01;18.10;86.70
13591;DHT22;6866;50.778;7.206;2023-06-10T03:13:27;18.00;87.10
13591;DHT22;6866;50.778;7.206;2023-06-10T03:15:53;18.00;87.20
13591;DHT22;6866;50.778;7.206;2023-06-10T03:18:18;18.00;88.40
13591;DHT22;6866;50.778;7.206;2023-06-10T03:20:44;18.00;88.90
13591;DHT22;6866;50.778;7.206;2023-06-10T03:23:10;18.00;88.90
13591;DHT22;6866;50.778;7.206;2023-06-10T03:25:35;18.10;88.60
13591;DHT22;6866;50.778;7.206;2023-06-10T03:28:01;18.10;88.70
13591;DHT22;6866;50.778;7.206;2023-06-10T03:30:29;18.10;89.60
13591;DHT22;6866;50.778;7.206;2023-06-10T03:32:55;18.10;89.80
13591;DHT22;6866;50.778;7.206;2023-06-10T03:35:21;18.00;89.50
13591;DHT22;6866;50.778;7.206;2023-06-10T03:37:46;18.00;90.00
13591;DHT22;6866;50.778;7.206;2023-06-10T03:40:12;18.00;89.70
13591;DHT22;6866;50.778;7.206;2023-06-10T03:42:37;18.00;90.00
13591;DHT22;6866;50.778;7.206;2023-06-10T03:45:03;18.00;90.30
13591;DHT22;6866;50.778;7.206;2023-06-10T03:47:34;18.00;90.40
13591;DHT22;6866;50.778;7.206;2023-06-10T03:50:00;18.00;90.70
13591;DHT22;6866;50.778;7.206;2023-06-10T03:52:25;18.00;90.20
13591;DHT22;6866;50.778;7.206;2023-06-10T03:54:51;17.90;90.70
13591;DHT22;6866;50.778;7.206;2023-06-10T03:57:16;17.90;90.70
13591;DHT22;6866;50.778;7.206;2023-06-10T03:59:42;18.00;91.00
13591;DHT22;6866;50.778;7.206;2023-06-10T04:02:07;18.10;90.50
13591;DHT22;6866;50.778;7.206;2023-06-10T04:04:34;18.00;91.00
13591;DHT22;6866;50.778;7.206;2023-06-10T04:07:00;17.90;90.90
13591;DHT22;6866;50.778;7.206;2023-06-10T04:09:25;18.10;90.30
13591;DHT22;6866;50.778;7.206;2023-06-10T04:11:51;18.10;90.60
13591;DHT22;6866;50.778;7.206;2023-06-10T04:14:16;18.10;90.50
13591;DHT22;6866;50.778;7.206;2023-06-10T04:16:42;18.00;91.00
13591;DHT22;6866;50.778;7.206;2023-06-10T04:19:08;17.80;91.70
13591;DHT22;6866;50.778;7.206;2023-06-10T04:21:33;17.80;91.70
13591;DHT22;6866;50.778;7.206;2023-06-10T04:23:59;17.90;91.60
13591;DHT22;6866;50.778;7.206;2023-06-10T04:26:24;17.90;91.70
13591;DHT22;6866;50.778;7.206;2023-06-10T04:28:51;17.90;91.80
13591;DHT22;6866;50.778;7.206;2023-06-10T04:31:16;17.80;92.00
13591;DHT22;6866;50.778;7.206;2023-06-10T04:33:42;17.70;92.20
13591;DHT22;6866;50.778;7.206;2023-06-10T04:36:07;17.90;92.00
13591;DHT22;6866;50.778;7.206;2023-06-10T04:38:33;17.90;91.80
13591;DHT22;6866;50.778;7.206;2023-06-10T04:40:59;18.00;91.40
13591;DHT22;6866;50.778;7.206;2023-06-10T04:43:24;18.00;92.00
13591;DHT22;6866;50.778;7.206;2023-06-10T04:45:50;18.10;91.40
13591;DHT22;6866;50.778;7.206;2023-06-10T04:48:15;18.20;91.10
13591;DHT22;6866;50.778;7.206;2023-06-10T04:50:41;18.20;91.00
13591;DHT22;6866;50.778;7.206;2023-06-10T04:53:06;18.40;90.80
13591;DHT22;6866;50.778;7.206;2023-06-10T04:55:32;18.50;90.30
13591;DHT22;6866;50.778;7.206;2023-06-10T04:57:59;18.50;90.40
13591;DHT22;6866;50.778;7.206;2023-06-10T05:00:25;18.60;90.20
13591;DHT22;6866;50.778;7.206;2023-06-10T05:02:50;18.70;90.00
13591;DHT22;6866;50.778;7.206;2023-06-10T05:05:17;18.70;88.40
13591;DHT22;6866;50.778;7.206;2023-06-10T05:07:43;19.00;87.70
13591;DHT22;6866;50.778;7.206;2023-06-10T05:10:09;19.20;84.90
13591;DHT22;6866;50.778;7.206;2023-06-10T05:12:34;19.30;84.20
13591;DHT22;6866;50.778;7.206;2023-06-10T05:15:00;19.40;82.60
13591;DHT22;6866;50.778;7.206;2023-06-10T05:17:26;19.40;82.30
13591;DHT22;6866;50.778;7.206;2023-06-10T05:19:52;21.00;77.40
13591;DHT22;6866;50.778;7.206;2023-06-10T05:22:18;22.00;70.80
13591;DHT22;6866;50.778;7.206;2023-06-10T05:24:44;21.50;70.40
13591;DHT22;6866;50.778;7.206;2023-06-10T05:27:10;21.60;70.40
13591;DHT22;6866;50.778;7.206;2023-06-10T05:29:36;21.20;70.80
13591;DHT22;6866;50.778;7.206;2023-06-10T05:32:02;20.90;73.80
13591;DHT22;6866;50.778;7.206;2023-06-10T05:34:31;22.20;71.50
13591;DHT22;6866;50.778;7.206;2023-06-10T05:36:57;25.30;62.60
13591;DHT22;6866;50.778;7.206;2023-06-10T05:39:22;26.80;55.50
13591;DHT22;6866;50.778;7.206;2023-06-10T05:41:48;25.50;55.60
13591;DHT22;6866;50.778;7.206;2023-06-10T05:44:14;25.00;58.10
13591;DHT22;6866;50.778;7.206;2023-06-10T05:46:39;26.90;55.50
13591;DHT22;6866;50.778;7.206;2023-06-10T05:49:05;28.70;51.10
13591;DHT22;6866;50.778;7.206;2023-06-10T05:51:30;29.20;49.20
13591;DHT22;6866;50.778;7.206;2023-06-10T05:53:56;30.00;47.50
13591;DHT22;6866;50.778;7.206;2023-06-10T05:56:21;30.00;46.30
13591;DHT22;6866;50.778;7.206;2023-06-10T05:58:48;30.20;45.90
13591;DHT22;6866;50.778;7.206;2023-06-10T06:01:13;30.00;45.00
13591;DHT22;6866;50.778;7.206;2023-06-10T06:03:39;30.60;44.60
13591;DHT22;6866;50.778;7.206;2023-06-10T06:06:05;30.60;43.90
13591;DHT22;6866;50.778;7.206;2023-06-10T06:08:30;30.70;42.20
13591;DHT22;6866;50.778;7.206;2023-06-10T06:10:56;30.90;42.60
13591;DHT22;6866;50.778;7.206;2023-06-10T06:13:21;30.70;41.60
13591;DHT22;6866;50.778;7.206;2023-06-10T06:15:47;31.00;40.40
13591;DHT22;6866;50.778;7.206;2023-06-10T06:18:13;31.40;39.20
13591;DHT22;6866;50.778;7.206;2023-06-10T06:20:38;31.70;39.40
13591;DHT22;6866;50.778;7.206;2023-06-10T06:23:04;31.80;39.30
13591;DHT22;6866;50.778;7.206;2023-06-10T06:25:29;31.70;37.80
13591;DHT22;6866;50.778;7.206;2023-06-10T06:27:55;30.90;37.80
13591;DHT22;6866;50.778;7.206;2023-06-10T06:30:20;30.90;38.20
13591;DHT22;6866;50.778;7.206;2023-06-10T06:32:46;31.50;37.20
13591;DHT22;6866;50.778;7.206;2023-06-10T06:35:11;31.00;35.50
13591;DHT22;6866;50.778;7.206;2023-06-10T06:37:37;31.60;36.30
13591;DHT22;6866;50.778;7.206;2023-06-10T06:40:03;31.40;35.80
13591;DHT22;6866;50.778;7.206;2023-06-10T06:42:29;32.00;35.80
13591;DHT22;6866;50.778;7.206;2023-06-10T06:44:55;31.70;35.30
13591;DHT22;6866;50.778;7.206;2023-06-10T06:47:20;32.00;34.80
13591;DHT22;6866;50.778;7.206;2023-06-10T06:49:47;31.60;34.70
13591;DHT22;6866;50.778;7.206;2023-06-10T06:52:13;31.10;34.70
13591;DHT22;6866;50.778;7.206;2023-06-10T06:54:39;31.30;36.10
13591;DHT22;6866;50.778;7.206;2023-06-10T06:57:04;30.60;33.90
13591;DHT22;6866;50.778;7.206;2023-06-10T06:59:31;31.20;35.60
13591;DHT22;6866;50.778;7.206;2023-06-10T07:01:56;31.70;34.90
13591;DHT22;6866;50.778;7.206;2023-06-10T07:04:22;31.30;35.00
13591;DHT22;6866;50.778;7.206;2023-06-10T07:06:48;32.10;34.20
13591;DHT22;6866;50.778;7.206;2023-06-10T07:09:14;31.80;32.90
13591;DHT22;6866;50.778;7.206;2023-06-10T07:11:39;31.40;34.40
13591;DHT22;6866;50.778;7.206;2023-06-10T07:14:05;32.20;33.60
13591;DHT22;6866;50.778;7.206;2023-06-10T07:16:31;31.70;34.10
13591;DHT22;6866;50.778;7.206;2023-06-10T07:18:56;32.40;32.50
13591;DHT22;6866;50.778;7.206;2023-06-10T07:21:22;31.90;32.70
13591;DHT22;6866;50.778;7.206;2023-06-10T07:23:48;32.20;33.00
13591;DHT22;6866;50.778;7.206;2023-06-10T07:26:14;32.60;32.80
13591;DHT22;6866;50.778;7.206;2023-06-10T07:28:40;32.80;31.60
13591;DHT22;6866;50.778;7.206;2023-06-10T07:31:07;32.90;31.90
13591;DHT22;6866;50.778;7.206;2023-06-10T07:33:33;31.80;32.60
13591;DHT22;6866;50.778;7.206;2023-06-10T07:35:59;31.80;33.50
13591;DHT22;6866;50.778;7.206;2023-06-10T07:38:25;32.10;32.30
13591;DHT22;6866;50.778;7.206;2023-06-10T07:40:51;32.70;32.00
13591;DHT22;6866;50.778;7.206;2023-06-10T07:43:16;32.90;31.60
13591;DHT22;6866;50.778;7.206;2023-06-10T07:45:42;32.70;31.30
13591;DHT22;6866;50.778;7.206;2023-06-10T07:48:08;32.70;31.60
13591;DHT22;6866;50.778;7.206;2023-06-10T07:50:33;33.50;32.00
13591;DHT22;6866;50.778;7.206;2023-06-10T07:52:59;33.50;30.90
13591;DHT22;6866;50.778;7.206;2023-06-10T07:55:24;33.00;31.60
13591;DHT22;6866;50.778;7.206;2023-06-10T07:57:51;33.50;31.50
13591;DHT22;6866;50.778;7.206;2023-06-10T08:00:17;33.50;31.60
13591;DHT22;6866;50.778;7.206;2023-06-10T08:02:42;33.60;30.90
13591;DHT22;6866;50.778;7.206;2023-06-10T08:05:08;33.30;31.90
13591;DHT22;6866;50.778;7.206;2023-06-10T08:07:34;33.60;31.40
13591;DHT22;6866;50.778;7.206;2023-06-10T08:10:00;32.80;31.10
13591;DHT22;6866;50.778;7.206;2023-06-10T08:12:25;32.60;32.10
13591;DHT22;6866;50.778;7.206;2023-06-10T08:14:51;33.00;32.40
13591;DHT22;6866;50.778;7.206;2023-06-10T08:17:16;33.20;31.20
13591;DHT22;6866;50.778;7.206;2023-06-10T08:19:42;32.80;31.60
13591;DHT22;6866;50.778;7.206;2023-06-10T08:22:07;33.10;30.90
13591;DHT22;6866;50.778;7.206;2023-06-10T08:24:33;32.40;31.60
13591;DHT22;6866;50.778;7.206;2023-06-10T08:26:58;32.40;32.00
13591;DHT22;6866;50.778;7.206;2023-06-10T08:29:24;33.00;31.10
13591;DHT22;6866;50.778;7.206;2023-06-10T08:31:49;32.50;32.10
13591;DHT22;6866;50.778;7.206;2023-06-10T08:34:15;33.10;31.10
13591;DHT22;6866;50.778;7.206;2023-06-10T08:36:40;33.00;32.20
13591;DHT22;6866;50.778;7.206;2023-06-10T08:39:06;33.70;32.00
13591;DHT22;6866;50.778;7.206;2023-06-10T08:41:35;33.90;30.80
13591;DHT22;6866;50.778;7.206;2023-06-10T08:46:30;33.70;31.50
13591;DHT22;6866;50.778;7.206;2023-06-10T08:48:59;33.20;32.30
13591;DHT22;6866;50.778;7.206;2023-06-10T08:51:29;33.40;31.70
13591;DHT22;6866;50.778;7.206;2023-06-10T08:54:11;32.30;33.10
13591;DHT22;6866;50.778;7.206;2023-06-10T08:56:40;32.20;33.20
13591;DHT22;6866;50.778;7.206;2023-06-10T08:59:07;31.60;35.10
13591;DHT22;6866;50.778;7.206;2023-06-10T09:01:33;32.20;35.50
13591;DHT22;6866;50.778;7.206;2023-06-10T09:03:59;31.60;34.30
13591;DHT22;6866;50.778;7.206;2023-06-10T09:06:25;31.70;33.80
13591;DHT22;6866;50.778;7.206;2023-06-10T09:08:51;31.40;35.10
13591;DHT22;6866;50.778;7.206;2023-06-10T09:11:17;32.40;33.90
13591;DHT22;6866;50.778;7.206;2023-06-10T09:13:43;32.10;32.80
13591;DHT22;6866;50.778;7.206;2023-06-10T09:16:08;31.70;33.60
13591;DHT22;6866;50.778;7.206;2023-06-10T09:18:34;31.20;34.40
13591;DHT22;6866;50.778;7.206;2023-06-10T09:21:00;30.70;36.10
13591;DHT22;6866;50.778;7.206;2023-06-10T09:23:25;31.00;35.70
13591;DHT22;6866;50.778;7.206;2023-06-10T09:25:57;31.60;35.10
13591;DHT22;6866;50.778;7.206;2023-06-10T09:28:25;32.10;35.50
13591;DHT22;6866;50.778;7.206;2023-06-10T09:31:01;31.80;33.60
13591;DHT22;6866;50.778;7.206;2023-06-10T09:33:27;31.50;34.00
13591;DHT22;6866;50.778;7.206;2023-06-10T09:35:52;31.90;34.40
13591;DHT22;6866;50.778;7.206;2023-06-10T09:38:20;32.10;33.40
13591;DHT22;6866;50.778;7.206;2023-06-10T09:40:49;32.30;34.20
13591;DHT22;6866;50.778;7.206;2023-06-10T09:43:15;31.80;33.70
13591;DHT22;6866;50.778;7.206;2023-06-10T09:45:41;31.70;34.00
13591;DHT22;6866;50.778;7.206;2023-06-10T09:48:08;31.70;33.40
13591;DHT22;6866;50.778;7.206;2023-06-10T09:50:34;31.50;34.10
13591;DHT22;6866;50.778;7.206;2023-06-10T09:53:00;31.60;34.10
13591;DHT22;6866;50.778;7.206;2023-06-10T09:55:27;31.70;33.90
13591;DHT22;6866;50.778;7.206;2023-06-10T09:57:53;31.50;34.10
13591;DHT22;6866;50.778;7.206;2023-06-10T10:00:19;31.70;34.10
13591;DHT22;6866;50.778;7.206;2023-06-10T10:02:52;31.80;33.90
13591;DHT22;6866;50.778;7.206;2023-06-10T10:05:20;31.50;33.40
13591;DHT22;6866;50.778;7.206;2023-06-10T10:07:47;31.30;34.30
13591;DHT22;6866;50.778;7.206;2023-06-10T10:10:13;31.80;32.60
13591;DHT22;6866;50.778;7.206;2023-06-10T10:12:40;31.30;33.10
13591;DHT22;6866;50.778;7.206;2023-06-10T10:15:09;32.00;34.70
13591;DHT22;6866;50.778;7.206;2023-06-10T10:17:39;32.40;33.60
13591;DHT22;6866;50.778;7.206;2023-06-10T10:20:05;31.60;32.60
13591;DHT22;6866;50.778;7.206;2023-06-10T10:22:39;31.70;33.60
13591;DHT22;6866;50.778;7.206;2023-06-10T10:25:16;32.10;32.90
13591;DHT22;6866;50.778;7.206;2023-06-10T10:28:08;32.10;32.80
13591;DHT22;6866;50.778;7.206;2023-06-10T10:30:59;32.00;31.70
13591;DHT22;6866;50.778;7.206;2023-06-10T10:33:49;32.10;32.50
13591;DHT22;6866;50.778;7.206;2023-06-10T10:36:12;32.30;31.60
13591;DHT22;6866;50.778;7.206;2023-06-10T10:38:39;31.90;31.60
13591;DHT22;6866;50.778;7.206;2023-06-10T10:41:05;31.60;31.80
13591;DHT22;6866;50.778;7.206;2023-06-10T10:43:31;32.00;31.30
13591;DHT22;6866;50.778;7.206;2023-06-10T10:46:01;31.90;32.20
13591;DHT22;6866;50.778;7.206;2023-06-10T10:48:37;32.00;31.70
13591;DHT22;6866;50.778;7.206;2023-06-10T10:51:03;32.50;29.80
13591;DHT22;6866;50.778;7.206;2023-06-10T10:53:29;32.00;30.80
13591;DHT22;6866;50.778;7.206;2023-06-10T10:56:05;32.00;30.90
13591;DHT22;6866;50.778;7.206;2023-06-10T10:58:31;31.80;32.20
13591;DHT22;6866;50.778;7.206;2023-06-10T11:00:57;31.60;31.40
13591;DHT22;6866;50.778;7.206;2023-06-10T11:03:28;31.50;31.50
13591;DHT22;6866;50.778;7.206;2023-06-10T11:05:53;32.20;31.00
13591;DHT22;6866;50.778;7.206;2023-06-10T11:10:53;32.50;30.30
13591;DHT22;6866;50.778;7.206;2023-06-10T11:13:21;32.70;29.80
13591;DHT22;6866;50.778;7.206;2023-06-10T11:15:48;32.50;30.10
13591;DHT22;6866;50.778;7.206;2023-06-10T11:18:35;32.40;29.70
13591;DHT22;6866;50.778;7.206;2023-06-10T11:21:04;32.30;29.30
13591;DHT22;6866;50.778;7.206;2023-06-10T11:29:06;31.60;29.10
13591;DHT22;6866;50.778;7.206;2023-06-10T11:31:38;32.00;28.60
13591;DHT22;6866;50.778;7.206;2023-06-10T11:34:05;32.10;28.50
13591;DHT22;6866;50.778;7.206;2023-06-10T11:36:33;31.50;28.60
13591;DHT22;6866;50.778;7.206;2023-06-10T11:39:01;31.10;28.70
13591;DHT22;6866;50.778;7.206;2023-06-10T11:41:29;31.00;28.70
13591;DHT22;6866;50.778;7.206;2023-06-10T11:43:56;31.10;28.50
13591;DHT22;6866;50.778;7.206;2023-06-10T11:46:22;31.50;28.40
13591;DHT22;6866;50.778;7.206;2023-06-10T11:48:52;31.30;27.60
13591;DHT22;6866;50.778;7.206;2023-06-10T11:51:18;31.60;28.40
13591;DHT22;6866;50.778;7.206;2023-06-10T11:53:45;32.00;28.10
13591;DHT22;6866;50.778;7.206;2023-06-10T11:56:11;32.10;27.70
13591;DHT22;6866;50.778;7.206;2023-06-10T11:58:36;31.70;27.60
13591;DHT22;6866;50.778;7.206;2023-06-10T12:01:02;32.00;27.50
13591;DHT22;6866;50.778;7.206;2023-06-10T12:03:38;32.00;28.10
13591;DHT22;6866;50.778;7.206;2023-06-10T12:06:05;32.50;27.10
13591;DHT22;6866;50.778;7.206;2023-06-10T12:08:32;32.10;26.90
13591;DHT22;6866;50.778;7.206;2023-06-10T12:10:58;32.20;28.20
13591;DHT22;6866;50.778;7.206;2023-06-10T12:13:27;32.50;27.20
13591;DHT22;6866;50.778;7.206;2023-06-10T12:15:53;32.30;27.60
13591;DHT22;6866;50.778;7.206;2023-06-10T12:18:23;32.20;27.00
13591;DHT22;6866;50.778;7.206;2023-06-10T12:20:49;32.10;27.20
13591;DHT22;6866;50.778;7.206;2023-06-10T12:23:17;32.20;27.80
13591;DHT22;6866;50.778;7.206;2023-06-10T12:25:53;32.40;27.50
13591;DHT22;6866;50.778;7.206;2023-06-10T12:28:23;32.50;27.60
13591;DHT22;6866;50.778;7.206;2023-06-10T12:30:49;32.10;28.20
13591;DHT22;6866;50.778;7.206;2023-06-10T12:35:50;32.30;27.60
13591;DHT22;6866;50.778;7.206;2023-06-10T12:38:23;32.40;27.40
13591;DHT22;6866;50.778;7.206;2023-06-10T12:41:01;32.30;27.20
13591;DHT22;6866;50.778;7.206;2023-06-10T12:43:27;32.40;26.60
13591;DHT22;6866;50.778;7.206;2023-06-10T12:45:53;32.70;27.00
13591;DHT22;6866;50.778;7.206;2023-06-10T12:48:20;32.30;26.70
13591;DHT22;6866;50.778;7.206;2023-06-10T12:50:51;32.20;26.80
13591;DHT22;6866;50.778;7.206;2023-06-10T12:53:18;32.30;26.50
13591;DHT22;6866;50.778;7.206;2023-06-10T12:55:45;31.70;26.60
13591;DHT22;6866;50.778;7.206;2023-06-10T12:58:11;31.90;27.20
13591;DHT22;6866;50.778;7.206;2023-06-10T13:00:37;32.20;27.10
13591;DHT22;6866;50.778;7.206;2023-06-10T13:03:03;32.40;26.90
13591;DHT22;6866;50.778;7.206;2023-06-10T13:05:31;32.50;27.10
13591;DHT22;6866;50.778;7.206;2023-06-10T13:07:57;32.30;26.80
13591;DHT22;6866;50.778;7.206;2023-06-10T13:10:23;32.20;26.70
13591;DHT22;6866;50.778;7.206;2023-06-10T13:12:49;32.00;26.90
13591;DHT22;6866;50.778;7.206;2023-06-10T13:15:16;32.00;26.30
13591;DHT22;6866;50.778;7.206;2023-06-10T13:17:43;32.20;26.90
13591;DHT22;6866;50.778;7.206;2023-06-10T13:20:09;32.30;27.40
13591;DHT22;6866;50.778;7.206;2023-06-10T13:22:35;31.70;26.90
13591;DHT22;6866;50.778;7.206;2023-06-10T13:25:05;31.40;27.00
13591;DHT22;6866;50.778;7.206;2023-06-10T13:27:33;31.10;27.20
13591;DHT22;6866;50.778;7.206;2023-06-10T13:29:59;31.70;27.60
13591;DHT22;6866;50.778;7.206;2023-06-10T13:32:24;31.70;27.40
13591;DHT22;6866;50.778;7.206;2023-06-10T13:34:50;31.80;27.90
13591;DHT22;6866;50.778;7.206;2023-06-10T13:37:16;31.60;28.20
13591;DHT22;6866;50.778;7.206;2023-06-10T13:39:45;31.40;27.80
13591;DHT22;6866;50.778;7.206;2023-06-10T13:42:16;31.60;28.10
13591;DHT22;6866;50.778;7.206;2023-06-10T13:44:42;31.60;27.70
13591;DHT22;6866;50.778;7.206;2023-06-10T13:47:07;31.80;27.90
13591;DHT22;6866;50.778;7.206;2023-06-10T13:49:33;32.10;28.00
13591;DHT22;6866;50.778;7.206;2023-06-10T13:51:59;31.80;27.20
13591;DHT22;6866;50.778;7.206;2023-06-10T13:54:24;31.70;27.20
13591;DHT22;6866;50.778;7.206;2023-06-10T13:56:50;31.70;27.20
13591;DHT22;6866;50.778;7.206;2023-06-10T13:59:15;31.70;27.40
13591;DHT22;6866;50.778;7.206;2023-06-10T14:01:41;31.50;27.20
13591;DHT22;6866;50.778;7.206;2023-06-10T14:04:07;31.50;27.30
13591;DHT22;6866;50.778;7.206;2023-06-10T14:06:33;31.60;27.00
13591;DHT22;6866;50.778;7.206;2023-06-10T14:08:59;31.60;26.90
13591;DHT22;6866;50.778;7.206;2023-06-10T14:11:25;31.60;27.40
13591;DHT22;6866;50.778;7.206;2023-06-10T14:13:51;31.70;26.80
13591;DHT22;6866;50.778;7.206;2023-06-10T14:16:16;31.90;26.80
13591;DHT22;6866;50.778;7.206;2023-06-10T14:18:42;31.90;26.60
13591;DHT22;6866;50.778;7.206;2023-06-10T14:21:07;31.90;26.70
13591;DHT22;6866;50.778;7.206;2023-06-10T14:23:33;31.50;26.70
13591;DHT22;6866;50.778;7.206;2023-06-10T14:25:59;31.70;27.20
13591;DHT22;6866;50.778;7.206;2023-06-10T14:28:24;31.60;27.10
13591;DHT22;6866;50.778;7.206;2023-06-10T14:30:52;31.70;27.30
13591;DHT22;6866;50.778;7.206;2023-06-10T14:33:17;31.70;27.00
13591;DHT22;6866;50.778;7.206;2023-06-10T14:35:43;31.60;27.20
13591;DHT22;6866;50.778;7.206;2023-06-10T14:38:09;31.60;26.50
13591;DHT22;6866;50.778;7.206;2023-06-10T14:40:35;31.60;26.70
13591;DHT22;6866;50.778;7.206;2023-06-10T14:43:00;31.70;26.60
13591;DHT22;6866;50.778;7.206;2023-06-10T14:45:29;31.50;26.40
13591;DHT22;6866;50.778;7.206;2023-06-10T14:47:54;31.70;26.10
13591;DHT22;6866;50.778;7.206;2023-06-10T14:50:20;31.70;27.40
13591;DHT22;6866;50.778;7.206;2023-06-10T14:52:46;31.60;26.00
13591;DHT22;6866;50.778;7.206;2023-06-10T14:55:11;31.60;26.30
13591;DHT22;6866;50.778;7.206;2023-06-10T14:57:37;31.60;26.40
13591;DHT22;6866;50.778;7.206;2023-06-10T15:00:02;31.60;26.60
13591;DHT22;6866;50.778;7.206;2023-06-10T15:02:29;31.30;26.20
13591;DHT22;6866;50.778;7.206;2023-06-10T15:04:54;31.30;26.30
13591;DHT22;6866;50.778;7.206;2023-06-10T15:07:20;31.30;26.60
13591;DHT22;6866;50.778;7.206;2023-06-10T15:09:45;31.30;26.60
13591;DHT22;6866;50.778;7.206;2023-06-10T15:12:11;31.50;26.80
13591;DHT22;6866;50.778;7.206;2023-06-10T15:14:36;31.40;25.80
13591;DHT22;6866;50.778;7.206;2023-06-10T15:17:02;31.30;25.70
13591;DHT22;6866;50.778;7.206;2023-06-10T15:19:28;31.30;25.70
13591;DHT22;6866;50.778;7.206;2023-06-10T15:21:54;31.50;26.20
13591;DHT22;6866;50.778;7.206;2023-06-10T15:24:19;31.70;25.90
13591;DHT22;6866;50.778;7.206;2023-06-10T15:26:45;31.40;26.10
13591;DHT22;6866;50.778;7.206;2023-06-10T15:29:10;31.40;25.70
13591;DHT22;6866;50.778;7.206;2023-06-10T15:31:36;31.40;27.00
13591;DHT22;6866;50.778;7.206;2023-06-10T15:34:02;31.00;27.00
13591;DHT22;6866;50.778;7.206;2023-06-10T15:36:27;31.00;27.20
13591;DHT22;6866;50.778;7.206;2023-06-10T15:38:54;31.00;27.50
13591;DHT22;6866;50.778;7.206;2023-06-10T15:41:20;31.00;26.90
13591;DHT22;6866;50.778;7.206;2023-06-10T15:43:46;30.80;27.10
13591;DHT22;6866;50.778;7.206;2023-06-10T15:46:11;30.80;26.40
13591;DHT22;6866;50.778;7.206;2023-06-10T15:48:37;30.90;26.10
13591;DHT22;6866;50.778;7.206;2023-06-10T15:51:02;30.90;26.40
13591;DHT22;6866;50.778;7.206;2023-06-10T15:53:28;30.90;27.00
13591;DHT22;6866;50.778;7.206;2023-06-10T15:55:54;30.80;27.50
13591;DHT22;6866;50.778;7.206;2023-06-10T15:58:19;30.70;27.90
13591;DHT22;6866;50.778;7.206;2023-06-10T16:00:45;30.70;28.00